createdAt,value
2022-11-04T00:02:05.839Z,100036.16
2022-11-04T00:04:32.719Z,100040.31
2022-11-04T00:06:59.306Z,100035.56
2022-11-04T00:09:28.697Z,100033.88
2022-11-04T00:12:13.836Z,100042.50
2022-11-04T00:14:40.683Z,100041.59
2022-11-04T00:17:22.846Z,100045.84
2022-11-04T00:20:10.007Z,100047.72
2022-11-04T00:22:56.230Z,100053.78
2022-11-04T00:28:29.479Z,100059.19
2022-11-04T00:30:57.586Z,100058.44
2022-11-04T00:33:27.497Z,100059.47
2022-11-04T00:35:56.605Z,100070.72
2022-11-04T00:38:24.937Z,100085.53
2022-11-04T00:40:51.820Z,100085.81
2022-11-04T00:43:18.334Z,100084.13
2022-11-04T00:45:45.151Z,100084.97
2022-11-04T00:48:11.846Z,100089.34
2022-11-04T00:50:39.933Z,100094.78
2022-11-04T00:53:06.896Z,100099.03
2022-11-04T00:55:33.783Z,100098.41
2022-11-04T00:58:00.451Z,100091.50
2022-11-04T01:00:27.255Z,100102.88
2022-11-04T01:02:54.203Z,100102.03
2022-11-04T01:05:20.688Z,100107.34
2022-11-04T01:07:47.070Z,100112.56
2022-11-04T01:10:13.576Z,100122.31
2022-11-04T01:12:39.959Z,100119.72
2022-11-04T01:15:06.723Z,100123.97
2022-11-04T01:17:33.241Z,100128.19
2022-11-04T01:19:59.763Z,100129.19
2022-11-04T01:22:26.173Z,100138.69
2022-11-04T01:24:53.158Z,100145.66
2022-11-04T01:27:19.793Z,100152.06
2022-11-04T01:29:46.163Z,100150.59
2022-11-04T01:32:12.643Z,100160.19
2022-11-04T01:34:42.446Z,100164.44
2022-11-04T01:37:10.897Z,100169.84
2022-11-04T01:39:37.301Z,100171.78
2022-11-04T01:44:42.374Z,100178.69
2022-11-04T01:47:16.435Z,100178.69
2022-11-04T01:52:19.754Z,100187.41
2022-11-04T01:54:49.431Z,100182.28
2022-11-04T01:57:26.290Z,100186.88
2022-11-04T01:59:52.994Z,100182.88
2022-11-04T02:02:19.665Z,100198.56
2022-11-04T02:04:49.052Z,100194.22
2022-11-04T02:07:15.667Z,100194.31
2022-11-04T02:09:43.638Z,100192.09
2022-11-04T02:12:28.722Z,100198.97
2022-11-04T02:14:55.974Z,100204.25
2022-11-04T02:17:45.461Z,100215.59
2022-11-04T02:20:24.064Z,100221.81
2022-11-04T02:23:09.045Z,100226.00
2022-11-04T02:25:54.576Z,100231.19
2022-11-04T02:28:33.076Z,100230.56
2022-11-04T02:31:04.841Z,100240.31
2022-11-04T02:33:47.036Z,100241.22
2022-11-04T02:36:44.268Z,100244.75
2022-11-04T02:39:36.897Z,100248.38
2022-11-04T02:42:22.176Z,100249.59
2022-11-04T02:44:57.734Z,100251.34
2022-11-04T02:47:28.619Z,100258.97
2022-11-04T02:49:59.594Z,100268.72
2022-11-04T02:52:53.473Z,100272.09
2022-11-04T02:55:27.825Z,100272.91
2022-11-04T02:57:59.324Z,100275.50
2022-11-04T03:00:25.932Z,100271.22
2022-11-04T03:03:01.331Z,100272.09
2022-11-04T03:05:32.857Z,100280.78
2022-11-04T03:08:04.436Z,100277.38
2022-11-04T03:10:38.385Z,100283.47
2022-11-04T03:13:36.828Z,100292.22
2022-11-04T03:16:09.250Z,100284.69
2022-11-04T03:18:52.674Z,100284.84
2022-11-04T03:21:20.684Z,100290.56
2022-11-04T03:23:47.276Z,100294.09
2022-11-04T03:26:30.037Z,100300.03
2022-11-04T03:29:26.108Z,100300.03
2022-11-04T03:32:04.773Z,100312.47
2022-11-04T03:34:31.614Z,100316.09
2022-11-04T03:36:59.013Z,100319.44
2022-11-04T03:39:25.597Z,100327.25
2022-11-04T03:42:02.198Z,100321.09
2022-11-04T03:44:30.111Z,100324.81
2022-11-04T03:46:57.866Z,100334.44
2022-11-04T03:49:25.022Z,100324.81
2022-11-04T03:51:52.564Z,100324.81
2022-11-04T03:54:19.996Z,100337.06
2022-11-04T03:57:00.125Z,100338.75
2022-11-04T03:59:46.774Z,100329.34
2022-11-04T04:02:22.752Z,100331.22
2022-11-04T04:05:19.103Z,100328.69
2022-11-04T04:07:50.732Z,100334.22
2022-11-04T04:10:39.208Z,100336.81
2022-11-04T04:13:23.825Z,100338.66
2022-11-04T04:16:03.402Z,100343.88
2022-11-04T04:18:44.257Z,100341.47
2022-11-04T04:21:17.417Z,100347.06
2022-11-04T04:24:04.685Z,100346.25
2022-11-04T04:26:54.259Z,100350.44
2022-11-04T04:29:21.872Z,100348.84
2022-11-04T04:31:49.852Z,100354.19
2022-11-04T04:34:22.614Z,100356.22
2022-11-04T04:36:51.419Z,100353.78
2022-11-04T04:39:40.972Z,100365.94
2022-11-04T04:42:27.478Z,100363.50
2022-11-04T04:45:00.036Z,100359.41
2022-11-04T04:47:30.281Z,100367.28
2022-11-04T04:49:58.905Z,100363.00
2022-11-04T04:52:39.079Z,100361.41
2022-11-04T04:55:06.506Z,100366.09
2022-11-04T04:57:32.931Z,100368.63
2022-11-04T04:59:59.407Z,100374.75
2022-11-04T05:02:26.032Z,100376.66
2022-11-04T05:04:52.642Z,100383.84
2022-11-04T05:07:19.085Z,100388.22
2022-11-04T05:09:45.523Z,100388.22
2022-11-04T05:12:12.055Z,100395.94
2022-11-04T05:14:38.482Z,100390.81
2022-11-04T05:17:05.127Z,100400.34
2022-11-04T05:19:31.700Z,100400.34
2022-11-04T05:21:58.887Z,100401.19
2022-11-04T05:24:25.521Z,100402.03
2022-11-04T05:26:52.111Z,100402.88
2022-11-04T05:29:18.565Z,100401.94
2022-11-04T05:31:45.099Z,100406.31
2022-11-04T05:34:12.329Z,100406.25
2022-11-04T05:36:39.255Z,100407.06
2022-11-04T05:39:07.512Z,100410.75
2022-11-04T05:41:35.029Z,100410.81
2022-11-04T05:44:03.748Z,100412.59
2022-11-04T05:46:31.351Z,100416.25
2022-11-04T05:48:58.091Z,100410.38
2022-11-04T05:51:26.901Z,100411.25
2022-11-04T05:53:53.892Z,100421.63
2022-11-04T05:56:20.475Z,100419.94
2022-11-04T05:58:46.995Z,100425.31
2022-11-04T06:01:38.234Z,100434.75
2022-11-04T06:04:06.212Z,100441.13
2022-11-04T06:06:35.322Z,100460.22
2022-11-04T06:09:03.782Z,100459.19
2022-11-04T06:11:31.368Z,100461.91
2022-11-04T06:13:58.273Z,100459.38
2022-11-04T06:16:25.217Z,100461.13
2022-11-04T06:18:52.540Z,100461.22
2022-11-04T06:21:21.194Z,100461.28
2022-11-04T06:23:48.624Z,100461.53
2022-11-04T06:26:16.934Z,100466.94
2022-11-04T06:28:45.075Z,100470.53
2022-11-04T06:31:12.966Z,100468.78
2022-11-04T06:33:40.116Z,100477.72
2022-11-04T06:36:07.930Z,100471.09
2022-11-04T06:38:37.384Z,100475.59
2022-11-04T06:43:32.192Z,100474.94
2022-11-04T06:46:01.010Z,100481.19
2022-11-04T06:48:30.541Z,100481.19
2022-11-04T06:51:00.907Z,100480.47
2022-11-04T06:53:29.130Z,100487.56
2022-11-04T06:56:02.885Z,100490.16
2022-11-04T06:58:29.402Z,100489.63
2022-11-04T07:00:55.974Z,100496.63
2022-11-04T07:03:22.524Z,100496.41
2022-11-04T07:05:48.984Z,100501.59
2022-11-04T07:08:15.570Z,100511.34
2022-11-04T07:10:42.349Z,100504.47
2022-11-04T07:13:09.156Z,100510.44
2022-11-04T07:15:35.842Z,100510.38
2022-11-04T07:18:02.393Z,100509.44
2022-11-04T07:20:29.059Z,100509.66
2022-11-04T07:22:55.823Z,100510.50
2022-11-04T07:25:22.337Z,100509.50
2022-11-04T07:27:48.947Z,100513.63
2022-11-04T07:30:15.472Z,100510.22
2022-11-04T07:32:41.939Z,100517.94
2022-11-04T07:35:08.877Z,100520.28
2022-11-04T07:37:35.362Z,100513.50
2022-11-04T07:40:01.837Z,100522.94
2022-11-04T07:42:28.343Z,100517.75
2022-11-04T07:44:54.828Z,100526.53
2022-11-04T07:47:21.386Z,100529.84
2022-11-04T07:49:49.239Z,100529.53
2022-11-04T07:52:16.621Z,100540.00
2022-11-04T07:54:43.182Z,100545.13
2022-11-04T07:57:09.621Z,100548.38
2022-11-04T07:59:36.078Z,100557.63
2022-11-04T08:02:02.577Z,100557.41
2022-11-04T08:04:29.253Z,100554.56
2022-11-04T08:06:55.796Z,100556.97
2022-11-04T08:09:23.358Z,100568.19
2022-11-04T08:11:50.063Z,100568.13
2022-11-04T08:14:16.643Z,100570.84
2022-11-04T08:16:43.194Z,100568.25
2022-11-04T08:19:09.708Z,100574.16
2022-11-04T08:21:36.256Z,100572.16
2022-11-04T08:24:06.027Z,100574.53
2022-11-04T08:26:32.726Z,100582.09
2022-11-04T08:29:01.418Z,100587.13
2022-11-04T08:31:33.804Z,100583.41
2022-11-04T08:34:01.280Z,100589.44
2022-11-04T08:36:31.015Z,100614.47
2022-11-04T08:38:57.940Z,100615.25
2022-11-04T08:41:29.117Z,100620.00
2022-11-04T08:44:00.944Z,100620.59
2022-11-04T08:46:29.346Z,100625.63
2022-11-04T08:48:55.880Z,100634.50
2022-11-04T08:51:25.478Z,100624.25
2022-11-04T08:53:52.531Z,100623.59
2022-11-04T08:56:25.723Z,100632.28
2022-11-04T08:58:53.301Z,100633.34
2022-11-04T09:01:21.604Z,100631.72
2022-11-04T09:03:49.145Z,100624.19
2022-11-04T09:06:20.403Z,100633.84
2022-11-04T09:08:47.579Z,100634.44
2022-11-04T09:11:16.187Z,100634.75
2022-11-04T09:13:43.261Z,100639.44
2022-11-04T09:16:12.391Z,100641.13
2022-11-04T09:18:39.803Z,100646.88
2022-11-04T09:21:08.497Z,100639.97
2022-11-04T09:23:35.369Z,100647.59
2022-11-04T09:26:15.030Z,100649.78
2022-11-04T09:28:42.444Z,100651.72
2022-11-04T09:31:17.379Z,100658.00
2022-11-04T09:33:44.822Z,100661.03
2022-11-04T09:36:12.852Z,100662.53
2022-11-04T09:38:40.543Z,100664.00
2022-11-04T09:41:38.238Z,100670.50
2022-11-04T09:44:28.874Z,100676.22
2022-11-04T09:47:00.758Z,100684.88
2022-11-04T09:49:32.280Z,100666.50
2022-11-04T09:52:02.182Z,100681.78
2022-11-04T09:55:07.452Z,100679.50
2022-11-04T09:57:34.290Z,100686.50
2022-11-04T10:00:00.972Z,100688.00
2022-11-04T10:02:33.583Z,100693.13
2022-11-04T10:05:10.117Z,100707.13
2022-11-04T10:07:51.801Z,100702.78
2022-11-04T10:10:43.475Z,100717.91
2022-11-04T10:14:09.115Z,100719.06
2022-11-04T10:16:52.238Z,100732.84
2022-11-04T10:19:41.890Z,100733.09
2022-11-04T10:22:36.199Z,100741.56
2022-11-04T10:25:33.099Z,100745.59
2022-11-04T10:28:00.020Z,100741.56
2022-11-04T10:30:26.560Z,100743.41
2022-11-04T10:33:19.977Z,100739.91
2022-11-04T10:36:01.670Z,100742.31
2022-11-04T10:38:43.485Z,100741.41
2022-11-04T10:41:17.958Z,100737.81
2022-11-04T10:43:44.604Z,100737.41
2022-11-04T10:46:38.743Z,100747.31
2022-11-04T10:49:26.260Z,100750.59
2022-11-04T10:51:55.531Z,100758.31
2022-11-04T10:54:22.888Z,100752.88
2022-11-04T10:56:52.343Z,100754.38
2022-11-04T10:59:24.968Z,100759.50
2022-11-04T11:01:55.549Z,100767.22
2022-11-04T11:04:29.807Z,100779.25
2022-11-04T11:06:58.843Z,100782.59
2022-11-04T11:09:29.951Z,100789.19
2022-11-04T11:12:29.545Z,100795.88
2022-11-04T11:14:53.359Z,100801.44
2022-11-04T11:17:38.515Z,100802.28
2022-11-04T11:20:22.569Z,100797.25
2022-11-04T11:22:54.854Z,100798.91
2022-11-04T11:25:31.599Z,100792.28
2022-11-04T11:27:58.062Z,100798.47
2022-11-04T11:30:28.506Z,100794.91
2022-11-04T11:32:58.920Z,100792.88
2022-11-04T11:35:31.211Z,100776.22
2022-11-04T11:37:59.159Z,100790.09
2022-11-04T11:40:43.932Z,100787.63
2022-11-04T11:43:35.180Z,100786.88
2022-11-04T11:46:03.305Z,100787.97
2022-11-04T11:48:39.610Z,100797.09
2022-11-04T11:51:07.065Z,100806.06
2022-11-04T11:53:35.524Z,100804.88
2022-11-04T11:56:26.112Z,100803.66
2022-11-04T12:02:04.382Z,100811.81
2022-11-04T12:10:49.192Z,100811.00
2022-11-04T12:13:27.623Z,100811.69
2022-11-04T12:16:13.875Z,100813.44
2022-11-04T12:18:59.496Z,100813.59
2022-11-04T12:21:33.625Z,100823.28
2022-11-04T12:24:31.886Z,100821.44
2022-11-04T12:27:20.154Z,100836.81
2022-11-04T12:30:17.647Z,100834.41
2022-11-04T12:33:20.453Z,100839.34
2022-11-04T12:35:55.540Z,100837.56
2022-11-04T12:38:31.165Z,100832.47
2022-11-04T12:41:37.482Z,100842.78
2022-11-04T12:44:05.321Z,100844.22
2022-11-04T12:46:40.604Z,100849.44
2022-11-04T12:49:24.534Z,100861.66
2022-11-04T12:51:53.806Z,100861.53
2022-11-04T12:54:57.786Z,100862.06
2022-11-04T12:57:27.328Z,100860.19
2022-11-04T13:00:16.873Z,100857.47
2022-11-04T13:02:54.160Z,100856.66
2022-11-04T13:05:39.731Z,100863.72
2022-11-04T13:08:16.458Z,100870.72
2022-11-04T13:10:49.970Z,100868.94
2022-11-04T13:13:21.162Z,100868.84
2022-11-04T13:15:52.235Z,100876.75
2022-11-04T13:18:21.574Z,100870.78
2022-11-04T13:21:02.133Z,100879.56
2022-11-04T13:23:39.327Z,100899.84
2022-11-04T13:26:11.955Z,100898.63
2022-11-04T13:28:41.763Z,100906.69
2022-11-04T13:31:20.797Z,100909.38
2022-11-04T13:33:53.234Z,100907.66
2022-11-04T13:36:41.878Z,100912.59
2022-11-04T13:39:18.380Z,100927.00
2022-11-04T13:41:53.869Z,100934.28
2022-11-04T13:44:35.871Z,100938.25
2022-11-04T13:47:16.692Z,100940.94
2022-11-04T13:49:50.772Z,100940.16
2022-11-04T13:52:17.900Z,100931.59
2022-11-04T13:54:50.500Z,100934.97
2022-11-04T13:57:30.764Z,100937.66
2022-11-04T14:00:12.995Z,100935.84
2022-11-04T14:02:43.832Z,100941.09
2022-11-04T14:05:40.006Z,100941.81
2022-11-04T14:08:15.959Z,100956.19
2022-11-04T14:10:59.486Z,100957.78
2022-11-04T14:13:37.409Z,100959.50
2022-11-04T14:16:10.178Z,100959.38
2022-11-04T14:18:44.980Z,100954.81
2022-11-04T14:21:15.541Z,100964.16
2022-11-04T14:23:54.359Z,100962.22
2022-11-04T14:26:27.505Z,100957.94
2022-11-04T14:29:09.998Z,100960.47
2022-11-04T14:31:39.479Z,100969.25
2022-11-04T14:34:07.385Z,100972.63
2022-11-04T14:36:40.931Z,100977.94
2022-11-04T14:39:10.278Z,100982.22
2022-11-04T14:41:39.899Z,100987.28
2022-11-04T14:44:12.367Z,100999.31
2022-11-04T14:46:45.306Z,100996.84
2022-11-04T14:49:35.861Z,101008.44
2022-11-04T14:52:02.339Z,101012.78
2022-11-04T14:54:34.172Z,101011.69
2022-11-04T14:57:15.103Z,101016.91
2022-11-04T14:59:42.136Z,101023.06
2022-11-04T15:02:31.442Z,101026.56
2022-11-04T15:05:00.519Z,101021.59
2022-11-04T15:07:39.017Z,101025.88
2022-11-04T15:10:31.777Z,101031.22
2022-11-04T15:13:02.248Z,101037.59
2022-11-04T15:15:39.271Z,101036.06
2022-11-04T15:18:16.994Z,101039.88
2022-11-04T15:20:49.845Z,101057.50
2022-11-04T15:23:20.798Z,101063.69
2022-11-04T15:25:48.852Z,101061.09
2022-11-04T15:28:22.054Z,101070.63
2022-11-04T15:31:12.530Z,101072.34
2022-11-04T15:33:45.376Z,101074.31
2022-11-04T15:36:33.033Z,101084.81
2022-11-04T15:39:00.866Z,101074.75
2022-11-04T15:41:48.483Z,101071.44
2022-11-04T15:44:21.444Z,101086.16
2022-11-04T15:46:50.585Z,101080.31
2022-11-04T15:49:25.003Z,101084.66
2022-11-04T15:51:54.974Z,101077.22
2022-11-04T15:54:29.556Z,101086.78
2022-11-04T15:57:00.898Z,101084.25
2022-11-04T15:59:37.561Z,101089.47
2022-11-04T16:02:07.685Z,101094.25
2022-11-04T16:04:34.376Z,101090.84
2022-11-04T16:07:30.659Z,101102.97
2022-11-04T16:09:57.170Z,101103.25
2022-11-04T16:12:23.542Z,101108.50
2022-11-04T16:14:52.774Z,101109.44
2022-11-04T16:17:20.162Z,101109.53
2022-11-04T16:19:54.861Z,101109.59
2022-11-04T16:22:27.838Z,101114.88
2022-11-04T16:24:56.270Z,101109.72
2022-11-04T16:27:24.107Z,101115.09
2022-11-04T16:30:19.044Z,101124.50
2022-11-04T16:32:47.921Z,101122.22
2022-11-04T16:35:23.949Z,101130.03
2022-11-04T16:37:51.834Z,101135.38
2022-11-04T16:40:19.965Z,101137.19
2022-11-04T16:42:47.844Z,101145.06
2022-11-04T16:45:25.310Z,101150.19
2022-11-04T16:47:52.709Z,101146.03
2022-11-04T16:50:19.719Z,101153.84
2022-11-04T16:52:46.695Z,101150.47
2022-11-04T16:55:14.885Z,101157.34
2022-11-04T16:57:41.816Z,101157.53
2022-11-04T17:00:09.208Z,101161.19
2022-11-04T17:02:41.187Z,101160.34
2022-11-04T17:05:08.818Z,101167.31
2022-11-04T17:07:52.260Z,101164.63
2022-11-04T17:10:22.017Z,101170.75
2022-11-04T17:12:48.580Z,101175.09
2022-11-04T17:15:16.186Z,101177.63
2022-11-04T17:17:43.421Z,101177.72
2022-11-04T17:20:18.320Z,101181.94
2022-11-04T17:22:46.876Z,101185.56
2022-11-04T17:25:22.943Z,101193.22
2022-11-04T17:27:49.446Z,101194.94
2022-11-04T17:30:17.509Z,101191.53
2022-11-04T17:32:44.784Z,101203.75
2022-11-04T17:35:12.017Z,101209.84
2022-11-04T17:37:38.613Z,101214.16
2022-11-04T17:40:06.556Z,101216.03
2022-11-04T17:42:51.837Z,101212.59
2022-11-04T17:45:18.307Z,101208.22
2022-11-04T17:47:44.741Z,101216.13
2022-11-04T17:50:11.134Z,101220.53
2022-11-04T17:52:38.335Z,101218.78
2022-11-04T17:55:05.571Z,101218.81
2022-11-04T17:57:34.834Z,101218.97
2022-11-04T18:00:05.353Z,101219.91
2022-11-04T18:02:32.878Z,101219.91
2022-11-04T18:05:01.623Z,101224.31
2022-11-04T18:07:28.884Z,101227.00
2022-11-04T18:09:55.505Z,101238.28
2022-11-04T18:12:37.133Z,101240.97
2022-11-04T18:15:12.073Z,101236.69
2022-11-04T18:17:39.387Z,101242.06
2022-11-04T18:20:13.348Z,101242.94
2022-11-04T18:22:41.143Z,101248.22
2022-11-04T18:25:08.277Z,101251.72
2022-11-04T18:27:34.890Z,101246.59
2022-11-04T18:30:01.350Z,101253.53
2022-11-04T18:32:27.828Z,101256.28
2022-11-04T18:34:54.357Z,101258.91
2022-11-04T18:37:20.862Z,101260.72
2022-11-04T18:39:47.380Z,101259.94
2022-11-04T18:42:14.402Z,101263.47
2022-11-04T18:44:40.858Z,101275.66
2022-11-04T18:47:07.236Z,101273.97
2022-11-04T18:49:33.821Z,101280.19
2022-11-04T18:52:00.285Z,101286.28
2022-11-04T18:54:26.791Z,101293.31
2022-11-04T18:56:53.462Z,101291.53
2022-11-04T18:59:19.955Z,101287.25
2022-11-04T19:01:46.657Z,101285.56
2022-11-04T19:04:13.835Z,101289.91
2022-11-04T19:06:42.546Z,101292.59
2022-11-04T19:09:44.713Z,101298.72
2022-11-04T19:12:15.749Z,101298.72
2022-11-04T19:14:42.233Z,101306.66
2022-11-04T19:17:08.764Z,101304.16
2022-11-04T19:19:35.460Z,101307.59
2022-11-04T19:22:01.927Z,101307.66
2022-11-04T19:24:28.674Z,101311.19
2022-11-04T19:26:55.147Z,101316.50
2022-11-04T19:29:21.619Z,101320.91
2022-11-04T19:31:48.321Z,101314.09
2022-11-04T19:34:14.927Z,101317.59
2022-11-04T19:36:41.394Z,101315.91
2022-11-04T19:39:07.815Z,101325.50
2022-11-04T19:41:52.919Z,101326.47
2022-11-04T19:44:20.639Z,101323.06
2022-11-04T19:46:47.775Z,101317.97
2022-11-04T19:49:14.240Z,101318.91
2022-11-04T19:51:41.682Z,101319.91
2022-11-04T19:54:09.595Z,101316.47
2022-11-04T19:56:36.551Z,101326.78
2022-11-04T19:59:06.405Z,101336.31
2022-11-04T20:01:34.841Z,101332.94
2022-11-04T20:04:02.961Z,101333.09
2022-11-04T20:06:32.356Z,101336.66
2022-11-04T20:09:04.275Z,101339.31
2022-11-04T20:11:32.150Z,101342.03
2022-11-04T20:14:03.292Z,101341.28
2022-11-04T20:16:33.138Z,101345.66
2022-11-04T20:19:04.129Z,101353.63
2022-11-04T20:21:33.550Z,101352.88
2022-11-04T20:24:02.710Z,101357.22
2022-11-04T20:26:30.266Z,101365.84
2022-11-04T20:29:00.181Z,101365.88
2022-11-04T20:31:30.313Z,101368.44
2022-11-04T20:33:57.889Z,101374.47
2022-11-04T20:36:26.922Z,101376.22
2022-11-04T20:39:04.747Z,101383.09
2022-11-04T20:41:31.970Z,101386.63
2022-11-04T20:43:59.125Z,101385.91
2022-11-04T20:46:31.159Z,101393.75
2022-11-04T20:48:58.448Z,101405.00
2022-11-04T20:51:31.062Z,101406.81
2022-11-04T20:54:02.541Z,101411.16
2022-11-04T20:56:37.807Z,101415.47
2022-11-04T20:59:06.072Z,101418.25
2022-11-04T21:01:35.138Z,101419.13
2022-11-04T21:04:06.487Z,101421.81
2022-11-04T21:06:35.492Z,101420.25
2022-11-04T21:09:01.973Z,101419.44
2022-11-04T21:11:31.878Z,101427.22
2022-11-04T21:13:58.991Z,101427.25
2022-11-04T21:16:25.848Z,101425.63
2022-11-04T21:18:52.585Z,101435.16
2022-11-04T21:21:19.070Z,101436.94
2022-11-04T21:23:46.689Z,101446.56
2022-11-04T21:26:20.966Z,101446.53
2022-11-04T21:28:49.037Z,101446.53
2022-11-04T21:31:15.702Z,101452.63
2022-11-04T21:33:42.128Z,101456.03
2022-11-04T21:36:11.585Z,101457.75
2022-11-04T21:38:38.180Z,101465.53
2022-11-04T21:41:07.558Z,101462.06
2022-11-04T21:43:34.403Z,101465.47
2022-11-04T21:46:08.713Z,101459.47
2022-11-04T21:48:36.155Z,101471.66
2022-11-04T21:51:11.352Z,101473.31
2022-11-04T21:53:38.052Z,101480.34
2022-11-04T21:56:13.010Z,101481.19
2022-11-04T21:58:39.887Z,101480.25
2022-11-04T22:01:08.129Z,101487.13
2022-11-04T22:03:35.109Z,101483.69
2022-11-04T22:06:10.416Z,101492.25
2022-11-04T22:08:37.774Z,101494.84
2022-11-04T22:11:16.264Z,101497.44
2022-11-04T22:13:43.106Z,101502.69
2022-11-04T22:16:21.537Z,101503.59
2022-11-04T22:18:51.589Z,101507.94
2022-11-04T22:21:18.174Z,101503.69
2022-11-04T22:23:45.056Z,101494.16
2022-11-04T22:26:14.462Z,101498.41
2022-11-04T22:28:41.568Z,101494.97
2022-11-04T22:31:23.087Z,101488.84
2022-11-04T22:33:50.829Z,101509.59
2022-11-04T22:36:18.110Z,101509.69
2022-11-04T22:38:44.919Z,101510.56
2022-11-04T22:41:15.980Z,101509.72
2022-11-04T22:43:42.767Z,101519.16
2022-11-04T22:46:13.655Z,101519.97
2022-11-04T22:48:40.285Z,101519.94
2022-11-04T22:51:09.069Z,101516.44
2022-11-04T22:53:36.837Z,101516.44
2022-11-04T22:56:05.900Z,101518.16
2022-11-04T22:58:32.783Z,101518.06
2022-11-04T23:01:06.960Z,101508.50
2022-11-04T23:03:33.761Z,101511.16
2022-11-04T23:06:02.857Z,101509.38
2022-11-04T23:08:31.990Z,101510.22
2022-11-04T23:11:27.698Z,101520.66
2022-11-04T23:14:35.422Z,101522.50
2022-11-04T23:17:20.602Z,101510.31
2022-11-04T23:19:47.154Z,101503.44
2022-11-04T23:22:32.042Z,101512.97
2022-11-04T23:25:09.311Z,101521.63
2022-11-04T23:28:04.846Z,101521.69
2022-11-04T23:30:34.741Z,101519.97
2022-11-04T23:33:04.065Z,101519.25
2022-11-04T23:35:51.974Z,101531.34
2022-11-04T23:38:19.122Z,101529.81
2022-11-04T23:41:06.816Z,101527.28
2022-11-04T23:43:33.942Z,101517.81
2022-11-04T23:46:18.930Z,101523.03
2022-11-04T23:49:04.205Z,101521.41
2022-11-04T23:51:48.963Z,101523.19
2022-11-04T23:54:33.775Z,101522.34
2022-11-04T23:57:18.717Z,101525.00
